createdAt,value
2022-09-25T00:00:56.449Z,97909.19
2022-09-25T00:03:25.388Z,97911.19
2022-09-25T00:05:52.586Z,97910.19
2022-09-25T00:08:20.440Z,97912.09
2022-09-25T00:10:49.744Z,97907.97
2022-09-25T00:13:18.600Z,97911.72
2022-09-25T00:15:53.522Z,97910.63
2022-09-25T00:18:39.686Z,97910.63
2022-09-25T00:21:06.800Z,97906.03
2022-09-25T00:23:34.555Z,97905.28
2022-09-25T00:26:02.393Z,97902.16
2022-09-25T00:28:32.047Z,97904.44
2022-09-25T00:30:58.821Z,97899.94
2022-09-25T00:33:25.701Z,97898.88
2022-09-25T00:35:52.347Z,97890.63
2022-09-25T00:38:19.112Z,97890.03
2022-09-25T00:40:46.126Z,97891.31
2022-09-25T00:43:34.159Z,97893.69
2022-09-25T00:46:02.605Z,97891.41
2022-09-25T00:48:29.954Z,97890.38
2022-09-25T00:50:57.274Z,97892.84
2022-09-25T00:53:30.687Z,97873.88
2022-09-25T00:55:58.166Z,97872.53
2022-09-25T00:58:28.015Z,97868.56
2022-09-25T01:00:55.184Z,97870.19
2022-09-25T01:03:22.992Z,97859.88
2022-09-25T01:05:49.784Z,97861.63
2022-09-25T01:08:19.586Z,97863.91
2022-09-25T01:10:46.741Z,97855.28
2022-09-25T01:13:14.026Z,97846.44
2022-09-25T01:16:17.266Z,97866.59
2022-09-25T01:19:11.171Z,97861.59
2022-09-25T01:21:49.621Z,97864.75
2022-09-25T01:24:35.059Z,97855.78
2022-09-25T01:27:32.201Z,97864.66
2022-09-25T01:30:13.412Z,97864.28
2022-09-25T01:32:55.606Z,97853.53
2022-09-25T01:35:36.703Z,97855.16
2022-09-25T01:38:15.294Z,97852.31
2022-09-25T01:40:48.029Z,97858.63
2022-09-25T01:43:18.837Z,97861.94
2022-09-25T01:46:22.001Z,97859.94
2022-09-25T01:48:54.711Z,97859.72
2022-09-25T01:51:24.885Z,97865.91
2022-09-25T01:53:54.472Z,97866.38
2022-09-25T01:56:32.840Z,97863.09
2022-09-25T01:59:10.921Z,97865.75
2022-09-25T02:01:40.992Z,97869.78
2022-09-25T02:04:15.619Z,97862.19
2022-09-25T02:06:44.980Z,97862.56
2022-09-25T02:09:36.259Z,97864.31
2022-09-25T02:12:08.718Z,97872.38
2022-09-25T02:14:39.305Z,97863.75
2022-09-25T02:17:10.841Z,97868.53
2022-09-25T02:19:56.146Z,97863.84
2022-09-25T02:22:26.713Z,97863.25
2022-09-25T02:24:59.192Z,97860.72
2022-09-25T02:27:29.634Z,97853.22
2022-09-25T02:29:56.693Z,97859.72
2022-09-25T02:32:28.211Z,97859.91
2022-09-25T02:34:55.673Z,97856.22
2022-09-25T02:37:22.571Z,97854.22
2022-09-25T02:39:52.948Z,97854.72
2022-09-25T02:42:29.839Z,97865.50
2022-09-25T02:45:18.308Z,97859.56
2022-09-25T02:48:24.061Z,97857.38
2022-09-25T02:51:05.119Z,97849.41
2022-09-25T02:53:49.204Z,97858.00
2022-09-25T02:56:30.121Z,97857.81
2022-09-25T02:58:59.768Z,97858.28
2022-09-25T03:01:27.387Z,97857.50
2022-09-25T03:03:55.836Z,97853.44
2022-09-25T03:06:22.886Z,97853.28
2022-09-25T03:08:53.049Z,97849.41
2022-09-25T03:11:21.346Z,97843.91
2022-09-25T03:13:56.307Z,97841.81
2022-09-25T03:16:25.827Z,97843.19
2022-09-25T03:18:52.499Z,97853.91
2022-09-25T03:21:19.218Z,97854.72
2022-09-25T03:23:45.891Z,97851.50
2022-09-25T03:26:13.110Z,97853.50
2022-09-25T03:28:40.223Z,97853.94
2022-09-25T03:31:10.640Z,97854.59
2022-09-25T03:33:42.758Z,97852.31
2022-09-25T03:36:15.192Z,97858.00
2022-09-25T03:38:43.149Z,97851.41
2022-09-25T03:41:10.922Z,97855.75
2022-09-25T03:43:38.931Z,97857.22
2022-09-25T03:46:07.039Z,97859.50
2022-09-25T03:48:34.455Z,97857.00
2022-09-25T03:51:01.360Z,97861.88
2022-09-25T03:53:31.728Z,97858.69
2022-09-25T03:55:58.551Z,97866.38
2022-09-25T03:58:25.328Z,97856.94
2022-09-25T04:00:52.012Z,97855.28
2022-09-25T04:03:18.846Z,97850.63
2022-09-25T04:05:46.274Z,97857.50
2022-09-25T04:08:13.054Z,97848.34
2022-09-25T04:10:40.402Z,97847.44
2022-09-25T04:13:07.630Z,97850.47
2022-09-25T04:15:34.416Z,97845.78
2022-09-25T04:18:05.996Z,97851.53
2022-09-25T04:20:33.166Z,97848.06
2022-09-25T04:23:00.218Z,97840.47
2022-09-25T04:25:26.944Z,97833.53
2022-09-25T04:27:58.489Z,97852.66
2022-09-25T04:30:27.137Z,97856.28
2022-09-25T04:33:12.700Z,97859.53
2022-09-25T04:35:40.706Z,97849.00
2022-09-25T04:38:07.890Z,97845.34
2022-09-25T04:40:34.687Z,97848.44
2022-09-25T04:43:02.767Z,97852.66
2022-09-25T04:45:31.108Z,97849.81
2022-09-25T04:48:00.122Z,97855.13
2022-09-25T04:50:28.756Z,97861.44
2022-09-25T04:53:02.014Z,97860.13
2022-09-25T04:55:28.994Z,97858.94
2022-09-25T04:57:59.184Z,97863.25
2022-09-25T05:00:29.881Z,97863.16
2022-09-25T05:02:56.716Z,97847.88
2022-09-25T05:05:27.376Z,97858.69
2022-09-25T05:07:55.199Z,97841.91
2022-09-25T05:10:27.855Z,97844.56
2022-09-25T05:12:56.407Z,97846.34
2022-09-25T05:15:23.579Z,97847.16
2022-09-25T05:17:50.278Z,97851.00
2022-09-25T05:20:17.293Z,97847.44
2022-09-25T05:22:44.406Z,97850.47
2022-09-25T05:25:11.132Z,97852.66
2022-09-25T05:27:38.634Z,97860.44
2022-09-25T05:30:05.905Z,97854.03
2022-09-25T05:32:32.604Z,97862.00
2022-09-25T05:34:59.310Z,97861.63
2022-09-25T05:37:26.024Z,97862.44
2022-09-25T05:39:53.092Z,97862.78
2022-09-25T05:42:19.719Z,97859.06
2022-09-25T05:44:46.595Z,97867.28
2022-09-25T05:47:13.414Z,97862.63
2022-09-25T05:49:40.116Z,97861.09
2022-09-25T05:52:06.766Z,97867.22
2022-09-25T05:54:33.360Z,97855.59
2022-09-25T05:57:08.106Z,97859.72
2022-09-25T05:59:35.318Z,97855.88
2022-09-25T06:02:02.164Z,97854.66
2022-09-25T06:04:28.876Z,97863.91
2022-09-25T06:06:55.578Z,97860.06
2022-09-25T06:09:25.543Z,97856.19
2022-09-25T06:11:53.597Z,97856.03
2022-09-25T06:14:20.561Z,97864.00
2022-09-25T06:16:50.393Z,97856.47
2022-09-25T06:19:17.507Z,97866.16
2022-09-25T06:21:47.583Z,97861.88
2022-09-25T06:24:14.618Z,97860.56
2022-09-25T06:26:41.618Z,97858.75
2022-09-25T06:29:08.265Z,97857.91
2022-09-25T06:31:35.162Z,97860.72
2022-09-25T06:34:01.894Z,97859.41
2022-09-25T06:36:29.085Z,97857.38
2022-09-25T06:38:56.258Z,97861.19
2022-09-25T06:41:23.464Z,97861.88
2022-09-25T06:43:51.010Z,97862.78
2022-09-25T06:46:20.368Z,97866.53
2022-09-25T06:48:57.967Z,97870.44
2022-09-25T06:51:25.627Z,97862.06
2022-09-25T06:53:53.414Z,97868.66
2022-09-25T06:56:20.545Z,97866.66
2022-09-25T06:58:47.249Z,97871.59
2022-09-25T07:01:14.511Z,97865.44
2022-09-25T07:03:48.407Z,97864.66
2022-09-25T07:06:17.910Z,97871.06
2022-09-25T07:08:44.680Z,97866.41
2022-09-25T07:11:19.462Z,97870.53
2022-09-25T07:13:46.316Z,97869.31
2022-09-25T07:16:15.567Z,97868.13
2022-09-25T07:18:43.856Z,97879.50
2022-09-25T07:21:15.710Z,97886.06
2022-09-25T07:23:42.923Z,97877.06
2022-09-25T07:26:11.864Z,97880.75
2022-09-25T07:28:42.051Z,97878.53
2022-09-25T07:31:15.346Z,97883.34
2022-09-25T07:33:42.506Z,97879.53
2022-09-25T07:36:09.597Z,97876.81
2022-09-25T07:38:37.123Z,97884.72
2022-09-25T07:41:08.391Z,97884.22
2022-09-25T07:43:35.102Z,97877.53
2022-09-25T07:46:01.743Z,97877.00
2022-09-25T07:48:30.765Z,97880.28
2022-09-25T07:51:04.646Z,97871.94
2022-09-25T07:53:31.715Z,97878.09
2022-09-25T07:56:05.092Z,97882.22
2022-09-25T07:58:33.087Z,97883.72
2022-09-25T08:01:00.855Z,97888.75
2022-09-25T08:03:28.034Z,97886.44
2022-09-25T08:06:02.599Z,97885.59
2022-09-25T08:08:29.918Z,97889.75
2022-09-25T08:11:06.893Z,97887.53
2022-09-25T08:13:34.385Z,97888.94
2022-09-25T08:16:06.230Z,97891.13
2022-09-25T08:18:33.440Z,97895.50
2022-09-25T08:21:04.145Z,97889.84
2022-09-25T08:23:31.135Z,97886.56
2022-09-25T08:25:58.184Z,97893.03
2022-09-25T08:28:24.887Z,97892.94
2022-09-25T08:30:51.654Z,97889.28
2022-09-25T08:33:18.548Z,97891.50
2022-09-25T08:35:57.754Z,97887.59
2022-09-25T08:38:24.888Z,97886.38
2022-09-25T08:40:56.853Z,97884.63
2022-09-25T08:43:24.672Z,97876.75
2022-09-25T08:46:10.150Z,97879.06
2022-09-25T08:49:02.861Z,97880.75
2022-09-25T08:51:30.745Z,97881.56
2022-09-25T08:53:59.303Z,97877.25
2022-09-25T08:56:27.857Z,97868.00
2022-09-25T08:59:23.742Z,97872.13
2022-09-25T09:01:54.945Z,97869.22
2022-09-25T09:04:51.854Z,97859.97
2022-09-25T09:07:28.103Z,97865.28
2022-09-25T09:10:04.058Z,97858.44
2022-09-25T09:12:45.984Z,97858.41
2022-09-25T09:15:36.487Z,97867.09
2022-09-25T09:18:15.448Z,97867.56
2022-09-25T09:20:51.798Z,97867.41
2022-09-25T09:23:20.999Z,97874.38
2022-09-25T09:25:51.055Z,97869.22
2022-09-25T09:28:24.748Z,97869.41
2022-09-25T09:31:10.297Z,97863.53
2022-09-25T09:33:58.632Z,97857.78
2022-09-25T09:36:43.995Z,97867.50
2022-09-25T09:39:23.103Z,97861.00
2022-09-25T09:41:54.558Z,97864.81
2022-09-25T09:44:51.407Z,97862.28
2022-09-25T09:47:50.841Z,97854.25
2022-09-25T09:50:24.988Z,97858.16
2022-09-25T09:52:58.496Z,97863.28
2022-09-25T09:55:31.020Z,97861.66
2022-09-25T09:58:03.209Z,97864.72
2022-09-25T10:00:30.109Z,97866.16
2022-09-25T10:03:03.603Z,97861.03
2022-09-25T10:05:39.906Z,97865.28
2022-09-25T10:08:06.590Z,97861.56
2022-09-25T10:10:38.706Z,97859.66
2022-09-25T10:13:11.211Z,97863.13
2022-09-25T10:15:54.768Z,97858.28
2022-09-25T10:18:23.006Z,97856.75
2022-09-25T10:20:54.308Z,97856.16
2022-09-25T10:23:36.056Z,97846.66
2022-09-25T10:26:03.163Z,97847.66
2022-09-25T10:28:32.593Z,97848.06
2022-09-25T10:31:00.076Z,97848.75
2022-09-25T10:33:31.081Z,97850.47
2022-09-25T10:35:58.519Z,97849.94
2022-09-25T10:38:32.872Z,97853.22
2022-09-25T10:41:13.708Z,97850.75
2022-09-25T10:44:00.245Z,97850.13
2022-09-25T10:46:50.694Z,97851.34
2022-09-25T10:49:46.770Z,97853.84
2022-09-25T10:52:15.721Z,97854.50
2022-09-25T10:54:45.656Z,97856.63
2022-09-25T10:57:25.630Z,97856.88
2022-09-25T10:59:52.968Z,97855.06
2022-09-25T11:02:34.625Z,97858.34
2022-09-25T11:05:01.965Z,97855.47
2022-09-25T11:07:29.156Z,97857.06
2022-09-25T11:09:59.953Z,97861.97
2022-09-25T11:12:32.244Z,97859.84
2022-09-25T11:15:08.965Z,97857.53
2022-09-25T11:17:43.473Z,97869.78
2022-09-25T11:20:16.622Z,97867.91
2022-09-25T11:22:48.627Z,97870.75
2022-09-25T11:25:16.230Z,97863.63
2022-09-25T11:27:50.447Z,97872.41
2022-09-25T11:30:19.171Z,97868.38
2022-09-25T11:33:13.097Z,97864.75
2022-09-25T11:35:50.165Z,97863.63
2022-09-25T11:38:52.697Z,97867.56
2022-09-25T11:41:50.226Z,97861.22
2022-09-25T11:44:21.506Z,97860.19
2022-09-25T11:47:01.566Z,97861.63
2022-09-25T11:49:39.598Z,97867.81
2022-09-25T11:52:20.430Z,97861.00
2022-09-25T11:54:51.276Z,97855.25
2022-09-25T11:57:40.056Z,97854.03
2022-09-25T12:00:22.142Z,97856.72
2022-09-25T12:03:28.492Z,97849.88
2022-09-25T12:06:16.907Z,97834.00
2022-09-25T12:09:17.380Z,97838.09
2022-09-25T12:11:54.757Z,97834.75
2022-09-25T12:14:50.571Z,97832.16
2022-09-25T12:17:23.875Z,97829.38
2022-09-25T12:20:02.517Z,97825.44
2022-09-25T12:23:14.000Z,97816.72
2022-09-25T12:26:05.701Z,97817.16
2022-09-25T12:28:52.377Z,97821.31
2022-09-25T12:31:19.319Z,97821.97
2022-09-25T12:33:55.800Z,97825.28
2022-09-25T12:36:35.599Z,97817.09
2022-09-25T12:39:25.830Z,97822.22
2022-09-25T12:42:24.469Z,97821.78
2022-09-25T12:44:58.245Z,97827.34
2022-09-25T12:47:43.195Z,97822.22
2022-09-25T12:50:32.091Z,97821.56
2022-09-25T12:53:20.653Z,97822.94
2022-09-25T12:56:15.068Z,97814.47
2022-09-25T12:58:53.946Z,97813.69
2022-09-25T13:01:53.747Z,97801.91
2022-09-25T13:04:27.723Z,97816.16
2022-09-25T13:07:04.179Z,97808.91
2022-09-25T13:09:35.603Z,97813.97
2022-09-25T13:12:16.906Z,97815.25
2022-09-25T13:14:52.449Z,97807.19
2022-09-25T13:17:19.074Z,97804.94
2022-09-25T13:19:46.109Z,97806.41
2022-09-25T13:22:13.708Z,97804.34
2022-09-25T13:24:46.325Z,97804.56
2022-09-25T13:27:22.608Z,97806.22
2022-09-25T13:29:55.819Z,97809.31
2022-09-25T13:32:24.580Z,97807.03
2022-09-25T13:35:03.413Z,97812.78
2022-09-25T13:37:35.811Z,97804.16
2022-09-25T13:40:35.783Z,97804.16
2022-09-25T13:43:25.050Z,97811.09
2022-09-25T13:46:15.074Z,97803.94
2022-09-25T13:48:42.294Z,97803.53
2022-09-25T13:51:20.917Z,97810.72
2022-09-25T13:53:59.284Z,97808.06
2022-09-25T13:56:29.105Z,97803.72
2022-09-25T13:58:59.687Z,97804.09
2022-09-25T14:01:36.974Z,97800.13
2022-09-25T14:04:27.284Z,97801.53
2022-09-25T14:06:58.449Z,97789.25
2022-09-25T14:09:28.808Z,97792.56
2022-09-25T14:12:05.124Z,97783.66
2022-09-25T14:14:35.149Z,97788.38
2022-09-25T14:17:03.567Z,97783.84
2022-09-25T14:19:35.995Z,97783.91
2022-09-25T14:22:03.267Z,97800.31
2022-09-25T14:24:31.176Z,97796.88
2022-09-25T14:27:01.467Z,97793.81
2022-09-25T14:29:48.549Z,97787.69
2022-09-25T14:32:55.933Z,97788.31
2022-09-25T14:35:29.029Z,97780.13
2022-09-25T14:38:13.977Z,97792.22
2022-09-25T14:41:04.385Z,97787.75
2022-09-25T14:43:41.868Z,97783.59
2022-09-25T14:46:19.952Z,97783.84
2022-09-25T14:48:54.903Z,97779.94
2022-09-25T14:51:25.847Z,97782.38
2022-09-25T14:53:57.232Z,97788.94
2022-09-25T14:56:24.792Z,97787.91
2022-09-25T14:58:57.881Z,97785.00
2022-09-25T15:01:26.126Z,97785.00
2022-09-25T15:03:54.563Z,97780.31
2022-09-25T15:06:45.589Z,97777.25
2022-09-25T15:09:37.641Z,97778.69
2022-09-25T15:12:31.494Z,97777.47
2022-09-25T15:15:11.575Z,97765.56
2022-09-25T15:17:45.631Z,97762.09
2022-09-25T15:20:19.661Z,97775.00
2022-09-25T15:23:06.036Z,97766.56
2022-09-25T15:25:39.531Z,97766.78
2022-09-25T15:28:07.813Z,97767.34
2022-09-25T15:30:36.667Z,97761.41
2022-09-25T15:33:03.504Z,97771.31
2022-09-25T15:35:30.626Z,97772.56
2022-09-25T15:38:10.757Z,97767.59
2022-09-25T15:40:38.037Z,97759.59
2022-09-25T15:43:12.714Z,97769.63
2022-09-25T15:45:43.290Z,97763.44
2022-09-25T15:48:32.608Z,97761.84
2022-09-25T15:51:02.256Z,97770.09
2022-09-25T15:53:33.365Z,97775.16
2022-09-25T15:56:07.018Z,97764.31
2022-09-25T15:58:43.292Z,97770.28
2022-09-25T16:01:30.973Z,97771.72
2022-09-25T16:04:16.286Z,97766.59
2022-09-25T16:06:44.529Z,97761.47
2022-09-25T16:09:21.347Z,97767.31
2022-09-25T16:11:48.671Z,97756.06
2022-09-25T16:14:29.278Z,97764.78
2022-09-25T16:16:57.428Z,97764.91
2022-09-25T16:19:27.811Z,97770.88
2022-09-25T16:21:54.789Z,97770.06
2022-09-25T16:24:27.082Z,97781.31
2022-09-25T16:26:59.652Z,97778.53
2022-09-25T16:29:36.592Z,97786.47
2022-09-25T16:32:08.356Z,97788.03
2022-09-25T16:34:39.575Z,97781.09
2022-09-25T16:37:18.520Z,97783.69
2022-09-25T16:39:45.165Z,97785.81
2022-09-25T16:42:40.335Z,97785.00
2022-09-25T16:45:27.777Z,97789.91
2022-09-25T16:47:54.587Z,97792.25
2022-09-25T16:50:22.156Z,97785.66
2022-09-25T16:52:49.525Z,97788.66
2022-09-25T16:55:23.396Z,97796.84
2022-09-25T16:57:51.877Z,97799.50
2022-09-25T17:00:29.300Z,97798.22
2022-09-25T17:02:56.693Z,97805.19
2022-09-25T17:05:26.882Z,97798.75
2022-09-25T17:08:00.425Z,97808.16
2022-09-25T17:10:29.684Z,97798.00
2022-09-25T17:12:57.700Z,97803.66
2022-09-25T17:15:29.357Z,97813.88
2022-09-25T17:17:56.534Z,97818.06
2022-09-25T17:20:24.562Z,97814.56
2022-09-25T17:22:52.626Z,97817.44
2022-09-25T17:26:00.482Z,97823.31
2022-09-25T17:28:27.872Z,97815.97
2022-09-25T17:30:54.645Z,97821.81
2022-09-25T17:33:22.714Z,97831.34
2022-09-25T17:35:53.004Z,97828.91
2022-09-25T17:38:19.939Z,97827.19
2022-09-25T17:40:48.120Z,97833.34
2022-09-25T17:43:15.816Z,97835.59
2022-09-25T17:45:54.556Z,97839.22
2022-09-25T17:48:29.494Z,97840.09
2022-09-25T17:51:01.552Z,97845.84
2022-09-25T17:53:30.493Z,97851.31
2022-09-25T17:55:57.432Z,97850.22
2022-09-25T17:58:25.481Z,97843.84
2022-09-25T18:00:53.268Z,97854.72
2022-09-25T18:03:20.930Z,97847.56
2022-09-25T18:05:47.966Z,97847.53
2022-09-25T18:08:15.158Z,97850.63
2022-09-25T18:10:42.137Z,97857.22
2022-09-25T18:13:13.596Z,97863.78
2022-09-25T18:15:54.901Z,97860.22
2022-09-25T18:18:21.651Z,97854.72
2022-09-25T18:21:09.278Z,97849.91
2022-09-25T18:23:38.759Z,97856.63
2022-09-25T18:26:07.483Z,97859.09
2022-09-25T18:28:34.181Z,97859.88
2022-09-25T18:31:00.945Z,97875.69
2022-09-25T18:33:27.685Z,97873.16
2022-09-25T18:35:54.822Z,97865.63
2022-09-25T18:38:21.455Z,97873.59
2022-09-25T18:40:48.147Z,97872.22
2022-09-25T18:43:14.906Z,97874.25
2022-09-25T18:45:48.303Z,97870.28
2022-09-25T18:48:14.901Z,97865.63
2022-09-25T18:50:41.883Z,97868.34
2022-09-25T18:53:08.606Z,97876.63
2022-09-25T18:55:35.357Z,97877.31
2022-09-25T18:58:02.294Z,97874.97
2022-09-25T19:00:29.024Z,97881.13
2022-09-25T19:02:55.716Z,97880.88
2022-09-25T19:05:22.559Z,97883.06
2022-09-25T19:07:49.396Z,97876.13
2022-09-25T19:10:16.152Z,97884.16
2022-09-25T19:12:44.044Z,97889.13
2022-09-25T19:15:10.881Z,97889.28
2022-09-25T19:17:37.644Z,97886.25
2022-09-25T19:20:04.996Z,97891.31
2022-09-25T19:22:31.648Z,97888.28
2022-09-25T19:24:58.727Z,97891.25
2022-09-25T19:27:25.616Z,97892.56
2022-09-25T19:29:52.327Z,97889.78
2022-09-25T19:32:19.250Z,97900.34
2022-09-25T19:34:46.346Z,97907.59
2022-09-25T19:37:13.323Z,97907.59
2022-09-25T19:39:58.716Z,97918.06
2022-09-25T19:42:27.578Z,97920.25
2022-09-25T19:44:55.938Z,97916.78
2022-09-25T19:47:23.563Z,97922.19
2022-09-25T19:49:50.255Z,97917.69
2022-09-25T19:52:17.205Z,97920.34
2022-09-25T19:54:43.866Z,97913.03
2022-09-25T19:57:11.335Z,97921.72
2022-09-25T19:59:37.942Z,97915.03
2022-09-25T20:02:04.781Z,97914.22
2022-09-25T20:04:31.441Z,97913.75
2022-09-25T20:06:58.924Z,97916.22
2022-09-25T20:09:28.776Z,97912.09
2022-09-25T20:12:04.882Z,97913.13
2022-09-25T20:14:31.489Z,97910.53
2022-09-25T20:16:59.400Z,97913.22
2022-09-25T20:19:27.506Z,97915.84
2022-09-25T20:21:54.351Z,97908.69
2022-09-25T20:24:21.115Z,97903.75
2022-09-25T20:26:48.040Z,97903.84
2022-09-25T20:29:16.873Z,97907.78
2022-09-25T20:31:45.375Z,97906.97
2022-09-25T20:34:13.985Z,97915.09
2022-09-25T20:36:40.728Z,97911.19
2022-09-25T20:39:07.992Z,97915.47
2022-09-25T20:41:34.982Z,97909.34
2022-09-25T20:44:01.823Z,97913.09
2022-09-25T20:46:30.091Z,97912.53
2022-09-25T20:48:57.651Z,97917.41
2022-09-25T20:51:30.260Z,97910.78
2022-09-25T20:53:59.605Z,97920.72
2022-09-25T20:56:27.702Z,97908.13
2022-09-25T20:58:55.477Z,97916.75
2022-09-25T21:01:26.477Z,97907.78
2022-09-25T21:03:53.530Z,97914.53
2022-09-25T21:06:26.289Z,97909.91
2022-09-25T21:08:55.001Z,97904.09
2022-09-25T21:11:22.743Z,97911.53
2022-09-25T21:13:53.720Z,97908.06
2022-09-25T21:16:22.142Z,97911.97
2022-09-25T21:18:57.509Z,97908.78
2022-09-25T21:21:25.059Z,97908.03
2022-09-25T21:23:56.421Z,97907.06
2022-09-25T21:26:28.393Z,97910.50
2022-09-25T21:28:57.214Z,97909.91
2022-09-25T21:31:26.610Z,97905.84
2022-09-25T21:33:54.568Z,97906.59
2022-09-25T21:36:21.976Z,97893.31
2022-09-25T21:38:49.479Z,97905.28
2022-09-25T21:41:19.486Z,97898.34
2022-09-25T21:43:46.543Z,97897.34
2022-09-25T21:46:18.437Z,97895.22
2022-09-25T21:48:59.862Z,97897.88
2022-09-25T21:51:32.281Z,97895.78
2022-09-25T21:54:01.169Z,97894.75
2022-09-25T21:56:29.692Z,97906.19
2022-09-25T21:58:57.645Z,97895.59
2022-09-25T22:01:27.770Z,97911.50
2022-09-25T22:03:57.333Z,97907.50
2022-09-25T22:06:29.302Z,97909.22
2022-09-25T22:08:59.364Z,97904.56
2022-09-25T22:11:27.115Z,97901.50
2022-09-25T22:13:55.865Z,97890.38
2022-09-25T22:16:25.392Z,97889.44
2022-09-25T22:18:54.768Z,97894.56
2022-09-25T22:21:23.669Z,97890.72
2022-09-25T22:23:50.683Z,97889.63
2022-09-25T22:26:18.581Z,97896.94
2022-09-25T22:28:45.746Z,97897.13
2022-09-25T22:31:15.587Z,97897.13
2022-09-25T22:33:42.366Z,97898.50
2022-09-25T22:36:10.471Z,97901.31
2022-09-25T22:38:38.769Z,97896.41
2022-09-25T22:41:13.420Z,97890.97
2022-09-25T22:43:40.976Z,97901.44
2022-09-25T22:46:09.013Z,97897.69
2022-09-25T22:48:36.434Z,97896.66
2022-09-25T22:51:08.543Z,97887.06
2022-09-25T22:53:38.294Z,97886.97
2022-09-25T22:56:11.927Z,97878.19
2022-09-25T22:58:38.656Z,97879.38
2022-09-25T23:01:11.990Z,97879.75
2022-09-25T23:03:38.704Z,97880.47
2022-09-25T23:06:05.404Z,97887.41
2022-09-25T23:08:32.087Z,97886.53
2022-09-25T23:11:07.503Z,97881.56
2022-09-25T23:13:34.957Z,97882.13
2022-09-25T23:16:07.279Z,97871.13
2022-09-25T23:18:37.234Z,97866.00
2022-09-25T23:21:04.595Z,97870.47
2022-09-25T23:23:32.339Z,97863.06
2022-09-25T23:26:07.975Z,97858.75
2022-09-25T23:28:36.407Z,97861.06
2022-09-25T23:31:11.573Z,97852.00
2022-09-25T23:33:39.788Z,97852.53
2022-09-25T23:36:12.951Z,97858.03
2022-09-25T23:38:39.678Z,97849.31
2022-09-25T23:41:17.905Z,97841.63
2022-09-25T23:43:45.068Z,97843.19
2022-09-25T23:46:12.339Z,97843.78
2022-09-25T23:48:39.511Z,97839.00
2022-09-25T23:51:07.601Z,97840.09
2022-09-25T23:53:34.328Z,97836.84
2022-09-25T23:56:12.296Z,97837.78
2022-09-25T23:58:39.532Z,97839.31
